sensor_id;sensor_type;location;lat;lon;timestamp;P1;durP1;ratioP1;P2;durP2;ratioP2
45905;SDS011;31619;49.008;12.106;2023-02-15T00:01:18;17.97;;;11.23;;
45905;SDS011;31619;49.008;12.106;2023-02-15T00:03:44;17.40;;;10.77;;
45905;SDS011;31619;49.008;12.106;2023-02-15T00:06:09;19.07;;;11.33;;
45905;SDS011;31619;49.008;12.106;2023-02-15T00:08:35;16.87;;;11.07;;
45905;SDS011;31619;49.008;12.106;2023-02-15T00:11:18;17.77;;;11.30;;
45905;SDS011;31619;49.008;12.106;2023-02-15T00:14:05;17.33;;;10.67;;
45905;SDS011;31619;49.008;12.106;2023-02-15T00:16:31;18.30;;;11.83;;
45905;SDS011;31619;49.008;12.106;2023-02-15T00:18:57;17.20;;;11.53;;
45905;SDS011;31619;49.008;12.106;2023-02-15T00:21:26;19.20;;;11.97;;
45905;SDS011;31619;49.008;12.106;2023-02-15T00:23:53;18.33;;;11.53;;
45905;SDS011;31619;49.008;12.106;2023-02-15T00:26:18;18.93;;;11.83;;
45905;SDS011;31619;49.008;12.106;2023-02-15T00:28:44;15.60;;;10.73;;
45905;SDS011;31619;49.008;12.106;2023-02-15T00:31:10;24.13;;;14.00;;
45905;SDS011;31619;49.008;12.106;2023-02-15T00:33:37;19.73;;;12.30;;
45905;SDS011;31619;49.008;12.106;2023-02-15T00:36:04;17.57;;;10.53;;
45905;SDS011;31619;49.008;12.106;2023-02-15T00:38:31;18.33;;;11.50;;
45905;SDS011;31619;49.008;12.106;2023-02-15T00:40:58;20.13;;;12.40;;
45905;SDS011;31619;49.008;12.106;2023-02-15T00:43:26;20.87;;;11.73;;
45905;SDS011;31619;49.008;12.106;2023-02-15T00:45:52;28.57;;;11.47;;
45905;SDS011;31619;49.008;12.106;2023-02-15T00:48:18;22.40;;;11.87;;
45905;SDS011;31619;49.008;12.106;2023-02-15T00:50:45;19.17;;;12.50;;
45905;SDS011;31619;49.008;12.106;2023-02-15T00:53:14;19.60;;;11.53;;
45905;SDS011;31619;49.008;12.106;2023-02-15T00:55:40;18.50;;;11.73;;
45905;SDS011;31619;49.008;12.106;2023-02-15T00:58:06;19.73;;;12.67;;
45905;SDS011;31619;49.008;12.106;2023-02-15T01:00:32;18.27;;;11.33;;
45905;SDS011;31619;49.008;12.106;2023-02-15T01:02:58;15.63;;;10.20;;
45905;SDS011;31619;49.008;12.106;2023-02-15T01:05:24;17.90;;;10.83;;
45905;SDS011;31619;49.008;12.106;2023-02-15T01:07:49;23.40;;;13.13;;
45905;SDS011;31619;49.008;12.106;2023-02-15T01:10:15;18.70;;;12.80;;
45905;SDS011;31619;49.008;12.106;2023-02-15T01:12:41;22.30;;;13.00;;
45905;SDS011;31619;49.008;12.106;2023-02-15T01:15:07;17.40;;;11.27;;
45905;SDS011;31619;49.008;12.106;2023-02-15T01:17:32;20.83;;;12.20;;
45905;SDS011;31619;49.008;12.106;2023-02-15T01:19:58;17.63;;;10.30;;
45905;SDS011;31619;49.008;12.106;2023-02-15T01:22:24;21.90;;;12.37;;
45905;SDS011;31619;49.008;12.106;2023-02-15T01:24:50;19.30;;;10.70;;
45905;SDS011;31619;49.008;12.106;2023-02-15T01:27:16;17.20;;;10.90;;
45905;SDS011;31619;49.008;12.106;2023-02-15T01:29:41;18.97;;;11.67;;
45905;SDS011;31619;49.008;12.106;2023-02-15T01:32:07;18.03;;;11.30;;
45905;SDS011;31619;49.008;12.106;2023-02-15T01:34:32;20.07;;;11.57;;
45905;SDS011;31619;49.008;12.106;2023-02-15T01:36:58;22.90;;;11.93;;
45905;SDS011;31619;49.008;12.106;2023-02-15T01:39:23;20.50;;;11.67;;
45905;SDS011;31619;49.008;12.106;2023-02-15T01:41:49;22.37;;;12.10;;
45905;SDS011;31619;49.008;12.106;2023-02-15T01:47:23;21.20;;;11.97;;
45905;SDS011;31619;49.008;12.106;2023-02-15T01:50:01;21.77;;;12.60;;
45905;SDS011;31619;49.008;12.106;2023-02-15T01:52:49;17.77;;;11.17;;
45905;SDS011;31619;49.008;12.106;2023-02-15T01:55:18;21.53;;;11.43;;
45905;SDS011;31619;49.008;12.106;2023-02-15T01:57:46;22.87;;;11.50;;
45905;SDS011;31619;49.008;12.106;2023-02-15T02:00:12;26.43;;;13.10;;
45905;SDS011;31619;49.008;12.106;2023-02-15T02:02:39;21.03;;;11.40;;
45905;SDS011;31619;49.008;12.106;2023-02-15T02:05:07;17.60;;;10.30;;
45905;SDS011;31619;49.008;12.106;2023-02-15T02:07:34;18.60;;;11.00;;
45905;SDS011;31619;49.008;12.106;2023-02-15T02:10:04;21.10;;;11.30;;
45905;SDS011;31619;49.008;12.106;2023-02-15T02:12:30;25.00;;;11.23;;
45905;SDS011;31619;49.008;12.106;2023-02-15T02:14:56;23.67;;;11.57;;
45905;SDS011;31619;49.008;12.106;2023-02-15T02:20:43;20.43;;;11.43;;
45905;SDS011;31619;49.008;12.106;2023-02-15T02:23:40;16.93;;;10.07;;
45905;SDS011;31619;49.008;12.106;2023-02-15T02:26:22;22.37;;;11.80;;
45905;SDS011;31619;49.008;12.106;2023-02-15T02:43:29;18.97;;;11.27;;
45905;SDS011;31619;49.008;12.106;2023-02-15T02:45:58;15.03;;;10.43;;
45905;SDS011;31619;49.008;12.106;2023-02-15T02:48:32;22.83;;;12.50;;
45905;SDS011;31619;49.008;12.106;2023-02-15T02:50:59;23.50;;;13.17;;
45905;SDS011;31619;49.008;12.106;2023-02-15T02:53:25;21.90;;;12.13;;
45905;SDS011;31619;49.008;12.106;2023-02-15T02:55:55;19.13;;;11.33;;
45905;SDS011;31619;49.008;12.106;2023-02-15T03:01:13;22.63;;;12.70;;
45905;SDS011;31619;49.008;12.106;2023-02-15T03:03:57;18.23;;;11.23;;
45905;SDS011;31619;49.008;12.106;2023-02-15T03:06:48;18.73;;;11.13;;
45905;SDS011;31619;49.008;12.106;2023-02-15T03:09:30;20.87;;;12.43;;
45905;SDS011;31619;49.008;12.106;2023-02-15T03:12:06;19.77;;;11.53;;
45905;SDS011;31619;49.008;12.106;2023-02-15T03:14:34;17.93;;;11.93;;
45905;SDS011;31619;49.008;12.106;2023-02-15T03:17:00;17.70;;;11.03;;
45905;SDS011;31619;49.008;12.106;2023-02-15T03:19:29;21.57;;;12.43;;
45905;SDS011;31619;49.008;12.106;2023-02-15T03:22:12;21.90;;;12.30;;
45905;SDS011;31619;49.008;12.106;2023-02-15T03:27:11;28.10;;;12.90;;
45905;SDS011;31619;49.008;12.106;2023-02-15T03:29:42;23.37;;;11.97;;
45905;SDS011;31619;49.008;12.106;2023-02-15T03:32:11;23.93;;;12.23;;
45905;SDS011;31619;49.008;12.106;2023-02-15T03:34:39;33.03;;;13.57;;
45905;SDS011;31619;49.008;12.106;2023-02-15T03:39:42;31.87;;;13.77;;
45905;SDS011;31619;49.008;12.106;2023-02-15T03:42:18;24.90;;;13.47;;
45905;SDS011;31619;49.008;12.106;2023-02-15T03:44:56;21.60;;;12.57;;
45905;SDS011;31619;49.008;12.106;2023-02-15T03:47:27;24.40;;;11.40;;
45905;SDS011;31619;49.008;12.106;2023-02-15T03:50:10;19.80;;;12.10;;
45905;SDS011;31619;49.008;12.106;2023-02-15T03:52:59;33.03;;;12.77;;
45905;SDS011;31619;49.008;12.106;2023-02-15T03:55:27;25.93;;;13.00;;
45905;SDS011;31619;49.008;12.106;2023-02-15T03:57:53;17.30;;;10.77;;
45905;SDS011;31619;49.008;12.106;2023-02-15T04:00:37;21.83;;;11.77;;
45905;SDS011;31619;49.008;12.106;2023-02-15T04:03:39;28.33;;;13.40;;
45905;SDS011;31619;49.008;12.106;2023-02-15T04:06:08;19.57;;;11.60;;
45905;SDS011;31619;49.008;12.106;2023-02-15T04:08:33;21.57;;;11.47;;
45905;SDS011;31619;49.008;12.106;2023-02-15T04:11:19;18.70;;;11.33;;
45905;SDS011;31619;49.008;12.106;2023-02-15T04:13:44;25.57;;;12.07;;
45905;SDS011;31619;49.008;12.106;2023-02-15T04:16:10;20.27;;;12.20;;
45905;SDS011;31619;49.008;12.106;2023-02-15T04:18:39;16.90;;;11.40;;
45905;SDS011;31619;49.008;12.106;2023-02-15T04:21:26;21.27;;;11.67;;
45905;SDS011;31619;49.008;12.106;2023-02-15T04:24:12;21.40;;;12.47;;
45905;SDS011;31619;49.008;12.106;2023-02-15T04:26:57;26.77;;;13.37;;
45905;SDS011;31619;49.008;12.106;2023-02-15T04:29:24;30.17;;;13.80;;
45905;SDS011;31619;49.008;12.106;2023-02-15T04:31:52;29.30;;;12.47;;
45905;SDS011;31619;49.008;12.106;2023-02-15T04:34:18;20.43;;;11.80;;
45905;SDS011;31619;49.008;12.106;2023-02-15T04:36:44;28.53;;;12.93;;
45905;SDS011;31619;49.008;12.106;2023-02-15T04:39:12;30.27;;;12.87;;
45905;SDS011;31619;49.008;12.106;2023-02-15T04:41:38;29.53;;;12.93;;
45905;SDS011;31619;49.008;12.106;2023-02-15T04:44:04;24.43;;;13.00;;
45905;SDS011;31619;49.008;12.106;2023-02-15T04:46:30;17.57;;;11.77;;
45905;SDS011;31619;49.008;12.106;2023-02-15T04:48:56;22.27;;;12.83;;
45905;SDS011;31619;49.008;12.106;2023-02-15T04:51:22;33.53;;;13.57;;
45905;SDS011;31619;49.008;12.106;2023-02-15T04:53:48;24.80;;;12.23;;
45905;SDS011;31619;49.008;12.106;2023-02-15T04:56:14;24.20;;;14.20;;
45905;SDS011;31619;49.008;12.106;2023-02-15T04:58:39;27.70;;;13.07;;
45905;SDS011;31619;49.008;12.106;2023-02-15T05:01:06;21.83;;;13.13;;
45905;SDS011;31619;49.008;12.106;2023-02-15T05:03:33;35.63;;;15.20;;
45905;SDS011;31619;49.008;12.106;2023-02-15T05:05:59;25.53;;;13.57;;
45905;SDS011;31619;49.008;12.106;2023-02-15T05:08:24;28.63;;;12.20;;
45905;SDS011;31619;49.008;12.106;2023-02-15T05:10:50;18.13;;;9.73;;
45905;SDS011;31619;49.008;12.106;2023-02-15T05:13:15;22.90;;;11.63;;
45905;SDS011;31619;49.008;12.106;2023-02-15T05:15:41;25.33;;;12.57;;
45905;SDS011;31619;49.008;12.106;2023-02-15T05:18:11;29.30;;;13.80;;
45905;SDS011;31619;49.008;12.106;2023-02-15T05:20:36;23.47;;;13.10;;
45905;SDS011;31619;49.008;12.106;2023-02-15T05:23:02;22.03;;;12.50;;
45905;SDS011;31619;49.008;12.106;2023-02-15T05:25:27;24.17;;;13.80;;
45905;SDS011;31619;49.008;12.106;2023-02-15T05:28:12;26.17;;;13.70;;
45905;SDS011;31619;49.008;12.106;2023-02-15T05:30:47;20.40;;;12.03;;
45905;SDS011;31619;49.008;12.106;2023-02-15T05:33:33;17.53;;;11.10;;
45905;SDS011;31619;49.008;12.106;2023-02-15T05:35:59;23.53;;;13.27;;
45905;SDS011;31619;49.008;12.106;2023-02-15T05:38:25;20.30;;;12.70;;
45905;SDS011;31619;49.008;12.106;2023-02-15T05:40:51;40.57;;;12.53;;
45905;SDS011;31619;49.008;12.106;2023-02-15T05:43:17;22.60;;;13.13;;
45905;SDS011;31619;49.008;12.106;2023-02-15T05:45:46;28.47;;;14.30;;
45905;SDS011;31619;49.008;12.106;2023-02-15T05:48:21;36.83;;;14.20;;
45905;SDS011;31619;49.008;12.106;2023-02-15T05:50:58;27.30;;;14.17;;
45905;SDS011;31619;49.008;12.106;2023-02-15T05:53:26;22.50;;;13.57;;
45905;SDS011;31619;49.008;12.106;2023-02-15T05:55:52;25.37;;;13.77;;
45905;SDS011;31619;49.008;12.106;2023-02-15T05:58:19;24.80;;;13.17;;
45905;SDS011;31619;49.008;12.106;2023-02-15T06:00:45;40.67;;;15.70;;
45905;SDS011;31619;49.008;12.106;2023-02-15T06:03:10;22.17;;;13.57;;
45905;SDS011;31619;49.008;12.106;2023-02-15T06:05:36;18.83;;;12.17;;
45905;SDS011;31619;49.008;12.106;2023-02-15T06:08:01;23.33;;;12.50;;
45905;SDS011;31619;49.008;12.106;2023-02-15T06:10:27;21.50;;;12.83;;
45905;SDS011;31619;49.008;12.106;2023-02-15T06:12:53;22.00;;;13.20;;
45905;SDS011;31619;49.008;12.106;2023-02-15T06:15:18;21.93;;;13.17;;
45905;SDS011;31619;49.008;12.106;2023-02-15T06:17:44;23.87;;;12.03;;
45905;SDS011;31619;49.008;12.106;2023-02-15T06:20:09;22.17;;;13.33;;
45905;SDS011;31619;49.008;12.106;2023-02-15T06:22:35;22.80;;;12.97;;
45905;SDS011;31619;49.008;12.106;2023-02-15T06:25:01;22.07;;;13.63;;
45905;SDS011;31619;49.008;12.106;2023-02-15T06:27:27;26.73;;;13.80;;
45905;SDS011;31619;49.008;12.106;2023-02-15T06:29:52;33.70;;;12.97;;
45905;SDS011;31619;49.008;12.106;2023-02-15T06:32:18;19.63;;;11.90;;
45905;SDS011;31619;49.008;12.106;2023-02-15T06:34:43;18.67;;;11.80;;
45905;SDS011;31619;49.008;12.106;2023-02-15T06:37:09;18.57;;;12.87;;
45905;SDS011;31619;49.008;12.106;2023-02-15T06:39:35;24.37;;;12.30;;
45905;SDS011;31619;49.008;12.106;2023-02-15T06:42:00;16.63;;;10.03;;
45905;SDS011;31619;49.008;12.106;2023-02-15T06:44:26;22.47;;;12.43;;
45905;SDS011;31619;49.008;12.106;2023-02-15T06:46:51;22.03;;;13.83;;
45905;SDS011;31619;49.008;12.106;2023-02-15T06:49:17;24.90;;;13.43;;
45905;SDS011;31619;49.008;12.106;2023-02-15T06:51:43;22.57;;;12.83;;
45905;SDS011;31619;49.008;12.106;2023-02-15T06:54:08;25.43;;;14.03;;
45905;SDS011;31619;49.008;12.106;2023-02-15T06:56:34;22.90;;;12.83;;
45905;SDS011;31619;49.008;12.106;2023-02-15T06:59:00;27.97;;;14.10;;
45905;SDS011;31619;49.008;12.106;2023-02-15T07:01:26;18.83;;;12.63;;
45905;SDS011;31619;49.008;12.106;2023-02-15T07:03:51;20.47;;;12.27;;
45905;SDS011;31619;49.008;12.106;2023-02-15T07:06:17;21.90;;;12.63;;
45905;SDS011;31619;49.008;12.106;2023-02-15T07:08:42;20.87;;;13.13;;
45905;SDS011;31619;49.008;12.106;2023-02-15T07:11:08;19.83;;;12.73;;
45905;SDS011;31619;49.008;12.106;2023-02-15T07:13:52;16.40;;;10.90;;
45905;SDS011;31619;49.008;12.106;2023-02-15T07:16:18;18.40;;;12.33;;
45905;SDS011;31619;49.008;12.106;2023-02-15T07:18:44;21.10;;;12.53;;
45905;SDS011;31619;49.008;12.106;2023-02-15T07:21:10;20.57;;;12.60;;
45905;SDS011;31619;49.008;12.106;2023-02-15T07:23:36;21.83;;;12.53;;
45905;SDS011;31619;49.008;12.106;2023-02-15T07:26:02;21.33;;;11.90;;
45905;SDS011;31619;49.008;12.106;2023-02-15T07:28:28;23.13;;;12.97;;
45905;SDS011;31619;49.008;12.106;2023-02-15T07:30:54;20.87;;;12.60;;
45905;SDS011;31619;49.008;12.106;2023-02-15T07:33:19;20.33;;;13.47;;
45905;SDS011;31619;49.008;12.106;2023-02-15T07:35:49;19.67;;;12.40;;
45905;SDS011;31619;49.008;12.106;2023-02-15T07:38:15;18.10;;;13.17;;
45905;SDS011;31619;49.008;12.106;2023-02-15T07:40:41;17.37;;;12.00;;
45905;SDS011;31619;49.008;12.106;2023-02-15T07:43:07;18.33;;;12.67;;
45905;SDS011;31619;49.008;12.106;2023-02-15T07:45:33;17.60;;;11.67;;
45905;SDS011;31619;49.008;12.106;2023-02-15T07:48:02;22.63;;;13.50;;
45905;SDS011;31619;49.008;12.106;2023-02-15T07:50:28;17.13;;;11.30;;
45905;SDS011;31619;49.008;12.106;2023-02-15T07:52:54;17.37;;;11.43;;
45905;SDS011;31619;49.008;12.106;2023-02-15T07:55:21;19.07;;;11.43;;
45905;SDS011;31619;49.008;12.106;2023-02-15T07:57:47;17.27;;;12.30;;
45905;SDS011;31619;49.008;12.106;2023-02-15T08:00:15;19.40;;;11.47;;
45905;SDS011;31619;49.008;12.106;2023-02-15T08:02:49;16.53;;;11.67;;
45905;SDS011;31619;49.008;12.106;2023-02-15T08:05:36;15.97;;;11.17;;
45905;SDS011;31619;49.008;12.106;2023-02-15T08:08:02;16.00;;;10.97;;
45905;SDS011;31619;49.008;12.106;2023-02-15T08:10:28;17.40;;;11.10;;
45905;SDS011;31619;49.008;12.106;2023-02-15T08:13:12;18.77;;;11.53;;
45905;SDS011;31619;49.008;12.106;2023-02-15T08:15:38;22.60;;;11.67;;
45905;SDS011;31619;49.008;12.106;2023-02-15T08:18:03;20.60;;;11.47;;
45905;SDS011;31619;49.008;12.106;2023-02-15T08:20:29;15.77;;;10.90;;
45905;SDS011;31619;49.008;12.106;2023-02-15T08:22:54;18.20;;;12.13;;
45905;SDS011;31619;49.008;12.106;2023-02-15T08:25:20;14.10;;;11.00;;
45905;SDS011;31619;49.008;12.106;2023-02-15T08:27:45;15.87;;;11.33;;
45905;SDS011;31619;49.008;12.106;2023-02-15T08:30:11;19.47;;;12.47;;
45905;SDS011;31619;49.008;12.106;2023-02-15T08:32:39;19.23;;;11.60;;
45905;SDS011;31619;49.008;12.106;2023-02-15T08:35:04;17.93;;;12.13;;
45905;SDS011;31619;49.008;12.106;2023-02-15T08:37:30;15.17;;;11.47;;
45905;SDS011;31619;49.008;12.106;2023-02-15T08:39:56;17.40;;;11.33;;
45905;SDS011;31619;49.008;12.106;2023-02-15T08:42:21;17.00;;;11.73;;
45905;SDS011;31619;49.008;12.106;2023-02-15T08:44:47;15.27;;;11.60;;
45905;SDS011;31619;49.008;12.106;2023-02-15T08:47:15;18.00;;;11.60;;
45905;SDS011;31619;49.008;12.106;2023-02-15T08:49:41;14.17;;;10.47;;
45905;SDS011;31619;49.008;12.106;2023-02-15T08:52:06;15.60;;;11.37;;
45905;SDS011;31619;49.008;12.106;2023-02-15T08:54:32;17.00;;;12.07;;
45905;SDS011;31619;49.008;12.106;2023-02-15T08:56:57;17.47;;;11.17;;
45905;SDS011;31619;49.008;12.106;2023-02-15T08:59:23;15.93;;;11.80;;
45905;SDS011;31619;49.008;12.106;2023-02-15T09:01:51;14.80;;;11.00;;
45905;SDS011;31619;49.008;12.106;2023-02-15T09:04:17;14.20;;;11.57;;
45905;SDS011;31619;49.008;12.106;2023-02-15T09:06:44;16.70;;;11.67;;
45905;SDS011;31619;49.008;12.106;2023-02-15T09:09:11;16.07;;;12.00;;
45905;SDS011;31619;49.008;12.106;2023-02-15T09:11:38;15.27;;;11.87;;
45905;SDS011;31619;49.008;12.106;2023-02-15T09:14:07;16.60;;;11.73;;
45905;SDS011;31619;49.008;12.106;2023-02-15T09:16:35;15.83;;;10.73;;
45905;SDS011;31619;49.008;12.106;2023-02-15T09:19:02;14.20;;;11.17;;
45905;SDS011;31619;49.008;12.106;2023-02-15T09:21:32;16.63;;;11.47;;
45905;SDS011;31619;49.008;12.106;2023-02-15T09:24:01;16.10;;;11.13;;
45905;SDS011;31619;49.008;12.106;2023-02-15T09:26:30;15.60;;;11.17;;
45905;SDS011;31619;49.008;12.106;2023-02-15T09:28:58;13.90;;;10.37;;
45905;SDS011;31619;49.008;12.106;2023-02-15T09:31:32;17.10;;;11.83;;
45905;SDS011;31619;49.008;12.106;2023-02-15T09:34:01;15.37;;;11.83;;
45905;SDS011;31619;49.008;12.106;2023-02-15T09:36:30;16.90;;;11.50;;
45905;SDS011;31619;49.008;12.106;2023-02-15T09:38:59;16.97;;;12.00;;
45905;SDS011;31619;49.008;12.106;2023-02-15T09:47:54;16.90;;;11.80;;
45905;SDS011;31619;49.008;12.106;2023-02-15T09:55:58;15.73;;;11.47;;
45905;SDS011;31619;49.008;12.106;2023-02-15T10:01:27;14.63;;;11.03;;
45905;SDS011;31619;49.008;12.106;2023-02-15T10:04:18;15.67;;;10.83;;
45905;SDS011;31619;49.008;12.106;2023-02-15T10:26:22;15.77;;;12.17;;
45905;SDS011;31619;49.008;12.106;2023-02-15T10:28:53;14.43;;;11.80;;
45905;SDS011;31619;49.008;12.106;2023-02-15T10:31:24;15.00;;;10.90;;
45905;SDS011;31619;49.008;12.106;2023-02-15T10:50:17;14.43;;;10.02;;
45905;SDS011;31619;49.008;12.106;2023-02-15T10:53:13;13.67;;;10.63;;
45905;SDS011;31619;49.008;12.106;2023-02-15T11:02:08;14.60;;;10.67;;
45905;SDS011;31619;49.008;12.106;2023-02-15T11:10:01;15.60;;;11.35;;
45905;SDS011;31619;49.008;12.106;2023-02-15T11:12:31;13.77;;;10.98;;
45905;SDS011;31619;49.008;12.106;2023-02-15T11:14:58;14.27;;;10.57;;
45905;SDS011;31619;49.008;12.106;2023-02-15T11:17:37;13.00;;;10.10;;
45905;SDS011;31619;49.008;12.106;2023-02-15T11:20:25;15.07;;;11.70;;
45905;SDS011;31619;49.008;12.106;2023-02-15T11:22:55;16.15;;;11.52;;
45905;SDS011;31619;49.008;12.106;2023-02-15T11:25:30;12.93;;;9.93;;
45905;SDS011;31619;49.008;12.106;2023-02-15T11:27:58;16.05;;;12.63;;
45905;SDS011;31619;49.008;12.106;2023-02-15T11:30:31;15.25;;;12.00;;
45905;SDS011;31619;49.008;12.106;2023-02-15T11:33:13;18.25;;;12.10;;
45905;SDS011;31619;49.008;12.106;2023-02-15T11:35:49;17.08;;;12.38;;
45905;SDS011;31619;49.008;12.106;2023-02-15T11:38:26;14.35;;;11.65;;
45905;SDS011;31619;49.008;12.106;2023-02-15T11:40:55;15.90;;;12.55;;
45905;SDS011;31619;49.008;12.106;2023-02-15T11:46:15;13.88;;;11.90;;
45905;SDS011;31619;49.008;12.106;2023-02-15T11:48:40;16.67;;;13.07;;
45905;SDS011;31619;49.008;12.106;2023-02-15T11:51:20;15.10;;;12.15;;
45905;SDS011;31619;49.008;12.106;2023-02-15T11:53:48;15.75;;;12.23;;
45905;SDS011;31619;49.008;12.106;2023-02-15T11:56:18;14.02;;;12.23;;
45905;SDS011;31619;49.008;12.106;2023-02-15T11:59:21;17.63;;;13.27;;
45905;SDS011;31619;49.008;12.106;2023-02-15T12:01:44;18.65;;;13.77;;
45905;SDS011;31619;49.008;12.106;2023-02-15T12:07:02;16.17;;;12.10;;
45905;SDS011;31619;49.008;12.106;2023-02-15T12:12:25;17.65;;;13.40;;
45905;SDS011;31619;49.008;12.106;2023-02-15T12:14:59;17.50;;;12.07;;
45905;SDS011;31619;49.008;12.106;2023-02-15T12:17:28;17.25;;;14.00;;
45905;SDS011;31619;49.008;12.106;2023-02-15T12:19:56;20.25;;;13.88;;
45905;SDS011;31619;49.008;12.106;2023-02-15T12:22:32;17.05;;;12.93;;
45905;SDS011;31619;49.008;12.106;2023-02-15T12:25:11;18.33;;;12.70;;
45905;SDS011;31619;49.008;12.106;2023-02-15T12:27:54;18.70;;;14.23;;
45905;SDS011;31619;49.008;12.106;2023-02-15T12:32:57;17.90;;;14.02;;
45905;SDS011;31619;49.008;12.106;2023-02-15T12:35:44;17.17;;;13.30;;
45905;SDS011;31619;49.008;12.106;2023-02-15T12:40:39;21.73;;;15.45;;
45905;SDS011;31619;49.008;12.106;2023-02-15T12:43:08;19.70;;;14.80;;
45905;SDS011;31619;49.008;12.106;2023-02-15T12:45:52;18.73;;;13.98;;
45905;SDS011;31619;49.008;12.106;2023-02-15T12:48:19;18.80;;;14.10;;
45905;SDS011;31619;49.008;12.106;2023-02-15T12:50:46;18.13;;;13.65;;
45905;SDS011;31619;49.008;12.106;2023-02-15T12:53:18;19.30;;;15.05;;
45905;SDS011;31619;49.008;12.106;2023-02-15T12:58:21;17.88;;;14.43;;
45905;SDS011;31619;49.008;12.106;2023-02-15T13:03:28;19.20;;;14.55;;
45905;SDS011;31619;49.008;12.106;2023-02-15T13:05:55;21.30;;;13.48;;
45905;SDS011;31619;49.008;12.106;2023-02-15T13:08:28;19.17;;;14.48;;
45905;SDS011;31619;49.008;12.106;2023-02-15T13:13:29;18.58;;;14.27;;
45905;SDS011;31619;49.008;12.106;2023-02-15T13:16:00;18.73;;;14.23;;
45905;SDS011;31619;49.008;12.106;2023-02-15T13:18:34;22.55;;;15.23;;
45905;SDS011;31619;49.008;12.106;2023-02-15T13:21:18;19.55;;;13.70;;
45905;SDS011;31619;49.008;12.106;2023-02-15T13:23:51;21.73;;;14.98;;
45905;SDS011;31619;49.008;12.106;2023-02-15T13:26:22;19.63;;;14.77;;
45905;SDS011;31619;49.008;12.106;2023-02-15T13:28:55;19.98;;;15.43;;
45905;SDS011;31619;49.008;12.106;2023-02-15T13:31:24;20.05;;;14.95;;
45905;SDS011;31619;49.008;12.106;2023-02-15T13:33:56;20.35;;;15.63;;
45905;SDS011;31619;49.008;12.106;2023-02-15T13:39:07;20.70;;;15.40;;
45905;SDS011;31619;49.008;12.106;2023-02-15T13:52:24;21.95;;;15.63;;
45905;SDS011;31619;49.008;12.106;2023-02-15T13:54:56;22.73;;;15.98;;
45905;SDS011;31619;49.008;12.106;2023-02-15T14:11:32;21.70;;;16.08;;
45905;SDS011;31619;49.008;12.106;2023-02-15T14:13:59;22.33;;;15.80;;
45905;SDS011;31619;49.008;12.106;2023-02-15T14:17:11;19.33;;;14.80;;
45905;SDS011;31619;49.008;12.106;2023-02-15T14:20:24;21.40;;;15.32;;
45905;SDS011;31619;49.008;12.106;2023-02-15T14:23:02;19.50;;;14.37;;
45905;SDS011;31619;49.008;12.106;2023-02-15T14:25:42;20.75;;;15.20;;
45905;SDS011;31619;49.008;12.106;2023-02-15T14:28:15;20.05;;;14.13;;
45905;SDS011;31619;49.008;12.106;2023-02-15T14:30:49;21.15;;;14.90;;
45905;SDS011;31619;49.008;12.106;2023-02-15T14:36:04;20.07;;;15.33;;
45905;SDS011;31619;49.008;12.106;2023-02-15T14:43:56;18.27;;;13.57;;
45905;SDS011;31619;49.008;12.106;2023-02-15T14:51:53;20.33;;;15.33;;
45905;SDS011;31619;49.008;12.106;2023-02-15T14:59:45;18.42;;;14.13;;
45905;SDS011;31619;49.008;12.106;2023-02-15T15:05:17;22.48;;;16.50;;
45905;SDS011;31619;49.008;12.106;2023-02-15T15:07:52;22.90;;;16.07;;
45905;SDS011;31619;49.008;12.106;2023-02-15T15:12:52;20.10;;;13.90;;
45905;SDS011;31619;49.008;12.106;2023-02-15T15:18:06;20.97;;;15.07;;
45905;SDS011;31619;49.008;12.106;2023-02-15T15:33:41;21.30;;;15.80;;
45905;SDS011;31619;49.008;12.106;2023-02-15T15:39:29;22.57;;;15.90;;
45905;SDS011;31619;49.008;12.106;2023-02-15T15:45:02;21.33;;;15.77;;
45905;SDS011;31619;49.008;12.106;2023-02-15T15:50:15;23.10;;;17.13;;
45905;SDS011;31619;49.008;12.106;2023-02-15T15:52:44;21.27;;;15.93;;
45905;SDS011;31619;49.008;12.106;2023-02-15T15:55:14;22.23;;;16.07;;
45905;SDS011;31619;49.008;12.106;2023-02-15T15:57:43;24.57;;;16.23;;
45905;SDS011;31619;49.008;12.106;2023-02-15T16:03:20;21.83;;;16.50;;
45905;SDS011;31619;49.008;12.106;2023-02-15T16:05:47;22.80;;;16.57;;
45905;SDS011;31619;49.008;12.106;2023-02-15T16:08:38;22.40;;;15.93;;
45905;SDS011;31619;49.008;12.106;2023-02-15T16:11:10;21.33;;;15.60;;
45905;SDS011;31619;49.008;12.106;2023-02-15T16:13:41;22.43;;;15.27;;
45905;SDS011;31619;49.008;12.106;2023-02-15T16:16:08;25.60;;;17.50;;
45905;SDS011;31619;49.008;12.106;2023-02-15T16:18:34;22.47;;;16.10;;
45905;SDS011;31619;49.008;12.106;2023-02-15T16:21:12;24.20;;;16.43;;
45905;SDS011;31619;49.008;12.106;2023-02-15T16:26:21;22.73;;;16.73;;
45905;SDS011;31619;49.008;12.106;2023-02-15T16:29:18;22.43;;;15.37;;
45905;SDS011;31619;49.008;12.106;2023-02-15T16:32:01;22.20;;;16.50;;
45905;SDS011;31619;49.008;12.106;2023-02-15T16:34:27;24.60;;;16.93;;
45905;SDS011;31619;49.008;12.106;2023-02-15T16:37:13;23.53;;;16.23;;
45905;SDS011;31619;49.008;12.106;2023-02-15T16:39:43;23.13;;;15.80;;
45905;SDS011;31619;49.008;12.106;2023-02-15T16:42:10;24.23;;;16.40;;
45905;SDS011;31619;49.008;12.106;2023-02-15T16:44:39;22.83;;;16.73;;
45905;SDS011;31619;49.008;12.106;2023-02-15T16:47:05;25.73;;;17.30;;
45905;SDS011;31619;49.008;12.106;2023-02-15T16:49:43;26.43;;;18.23;;
45905;SDS011;31619;49.008;12.106;2023-02-15T16:52:13;24.97;;;18.13;;
45905;SDS011;31619;49.008;12.106;2023-02-15T16:54:49;25.30;;;17.40;;
45905;SDS011;31619;49.008;12.106;2023-02-15T16:57:21;27.80;;;17.73;;
45905;SDS011;31619;49.008;12.106;2023-02-15T16:59:50;23.60;;;17.23;;
45905;SDS011;31619;49.008;12.106;2023-02-15T17:02:26;25.87;;;17.63;;
45905;SDS011;31619;49.008;12.106;2023-02-15T17:05:02;25.87;;;16.70;;
45905;SDS011;31619;49.008;12.106;2023-02-15T17:07:39;25.73;;;16.60;;
45905;SDS011;31619;49.008;12.106;2023-02-15T17:12:54;24.80;;;17.10;;
45905;SDS011;31619;49.008;12.106;2023-02-15T17:15:26;24.57;;;18.07;;
45905;SDS011;31619;49.008;12.106;2023-02-15T17:18:06;23.30;;;18.47;;
45905;SDS011;31619;49.008;12.106;2023-02-15T17:20:41;25.03;;;16.73;;
45905;SDS011;31619;49.008;12.106;2023-02-15T17:23:21;25.37;;;16.83;;
45905;SDS011;31619;49.008;12.106;2023-02-15T17:25:47;23.97;;;17.00;;
45905;SDS011;31619;49.008;12.106;2023-02-15T17:28:20;26.40;;;17.47;;
45905;SDS011;31619;49.008;12.106;2023-02-15T17:30:48;24.73;;;17.60;;
45905;SDS011;31619;49.008;12.106;2023-02-15T17:33:58;24.20;;;17.03;;
45905;SDS011;31619;49.008;12.106;2023-02-15T17:41:21;27.60;;;17.60;;
45905;SDS011;31619;49.008;12.106;2023-02-15T17:43:54;22.27;;;16.53;;
45905;SDS011;31619;49.008;12.106;2023-02-15T17:46:20;24.77;;;16.23;;
45905;SDS011;31619;49.008;12.106;2023-02-15T17:48:49;25.47;;;16.63;;
45905;SDS011;31619;49.008;12.106;2023-02-15T17:51:17;25.17;;;16.97;;